sensor_id;sensor_type;location;lat;lon;timestamp;P1;durP1;ratioP1;P2;durP2;ratioP2
22256;SDS011;11297;42.686;23.374;2022-09-03T00:00:14;5.60;;;5.03;;
22256;SDS011;11297;42.686;23.374;2022-09-03T00:08:27;5.47;;;4.97;;
22256;SDS011;11297;42.686;23.374;2022-09-03T00:11:02;6.00;;;5.13;;
22256;SDS011;11297;42.686;23.374;2022-09-03T00:13:36;5.83;;;5.20;;
22256;SDS011;11297;42.686;23.374;2022-09-03T00:16:07;5.23;;;4.77;;
22256;SDS011;11297;42.686;23.374;2022-09-03T00:18:46;6.13;;;5.03;;
22256;SDS011;11297;42.686;23.374;2022-09-03T00:21:31;7.43;;;5.30;;
22256;SDS011;11297;42.686;23.374;2022-09-03T00:24:02;5.83;;;5.20;;
22256;SDS011;11297;42.686;23.374;2022-09-03T00:26:32;6.03;;;5.43;;
22256;SDS011;11297;42.686;23.374;2022-09-03T00:29:08;5.67;;;4.93;;
22256;SDS011;11297;42.686;23.374;2022-09-03T00:31:39;6.23;;;5.53;;
22256;SDS011;11297;42.686;23.374;2022-09-03T00:34:39;6.87;;;5.37;;
22256;SDS011;11297;42.686;23.374;2022-09-03T00:37:08;5.17;;;4.67;;
22256;SDS011;11297;42.686;23.374;2022-09-03T00:39:35;6.40;;;5.43;;
22256;SDS011;11297;42.686;23.374;2022-09-03T00:47:54;5.30;;;4.87;;
22256;SDS011;11297;42.686;23.374;2022-09-03T00:53:33;6.03;;;4.77;;
22256;SDS011;11297;42.686;23.374;2022-09-03T01:01:35;5.33;;;4.83;;
22256;SDS011;11297;42.686;23.374;2022-09-03T01:06:39;5.73;;;4.83;;
22256;SDS011;11297;42.686;23.374;2022-09-03T01:09:35;5.20;;;4.70;;
22256;SDS011;11297;42.686;23.374;2022-09-03T01:12:40;6.10;;;5.07;;
22256;SDS011;11297;42.686;23.374;2022-09-03T01:15:11;5.97;;;4.93;;
22256;SDS011;11297;42.686;23.374;2022-09-03T01:29:47;7.33;;;5.63;;
22256;SDS011;11297;42.686;23.374;2022-09-03T01:32:23;5.13;;;4.63;;
22256;SDS011;11297;42.686;23.374;2022-09-03T01:35:03;5.33;;;4.50;;
22256;SDS011;11297;42.686;23.374;2022-09-03T01:48:04;5.03;;;4.53;;
22256;SDS011;11297;42.686;23.374;2022-09-03T01:53:09;5.40;;;4.63;;
22256;SDS011;11297;42.686;23.374;2022-09-03T01:58:39;8.60;;;6.00;;
22256;SDS011;11297;42.686;23.374;2022-09-03T02:01:15;6.53;;;5.77;;
22256;SDS011;11297;42.686;23.374;2022-09-03T02:03:45;5.30;;;4.80;;
22256;SDS011;11297;42.686;23.374;2022-09-03T02:06:12;6.83;;;6.13;;
22256;SDS011;11297;42.686;23.374;2022-09-03T02:08:38;6.20;;;4.90;;
22256;SDS011;11297;42.686;23.374;2022-09-03T02:11:04;5.50;;;5.00;;
22256;SDS011;11297;42.686;23.374;2022-09-03T02:16:09;5.90;;;5.30;;
22256;SDS011;11297;42.686;23.374;2022-09-03T02:18:47;6.10;;;5.50;;
22256;SDS011;11297;42.686;23.374;2022-09-03T02:21:17;6.27;;;5.50;;
22256;SDS011;11297;42.686;23.374;2022-09-03T02:23:45;6.27;;;5.67;;
22256;SDS011;11297;42.686;23.374;2022-09-03T02:26:13;5.97;;;5.33;;
22256;SDS011;11297;42.686;23.374;2022-09-03T02:28:42;5.87;;;4.93;;
22256;SDS011;11297;42.686;23.374;2022-09-03T02:31:08;6.63;;;5.30;;
22256;SDS011;11297;42.686;23.374;2022-09-03T02:33:36;8.97;;;5.67;;
22256;SDS011;11297;42.686;23.374;2022-09-03T02:36:04;6.03;;;5.43;;
22256;SDS011;11297;42.686;23.374;2022-09-03T02:38:31;6.53;;;5.87;;
22256;SDS011;11297;42.686;23.374;2022-09-03T02:40:57;5.90;;;5.37;;
22256;SDS011;11297;42.686;23.374;2022-09-03T02:45:54;5.87;;;5.27;;
22256;SDS011;11297;42.686;23.374;2022-09-03T02:48:23;6.77;;;6.17;;
22256;SDS011;11297;42.686;23.374;2022-09-03T02:50:49;6.50;;;5.77;;
22256;SDS011;11297;42.686;23.374;2022-09-03T02:53:15;7.07;;;5.43;;
22256;SDS011;11297;42.686;23.374;2022-09-03T02:55:40;6.60;;;5.90;;
22256;SDS011;11297;42.686;23.374;2022-09-03T02:58:06;6.67;;;5.90;;
22256;SDS011;11297;42.686;23.374;2022-09-03T03:00:32;7.57;;;6.27;;
22256;SDS011;11297;42.686;23.374;2022-09-03T03:03:02;8.40;;;6.37;;
22256;SDS011;11297;42.686;23.374;2022-09-03T03:05:39;7.33;;;6.20;;
22256;SDS011;11297;42.686;23.374;2022-09-03T03:08:08;7.43;;;6.73;;
22256;SDS011;11297;42.686;23.374;2022-09-03T03:10:34;7.07;;;6.13;;
22256;SDS011;11297;42.686;23.374;2022-09-03T03:12:59;8.23;;;6.80;;
22256;SDS011;11297;42.686;23.374;2022-09-03T03:15:25;6.90;;;6.20;;
22256;SDS011;11297;42.686;23.374;2022-09-03T03:17:54;8.50;;;6.63;;
22256;SDS011;11297;42.686;23.374;2022-09-03T03:20:21;8.27;;;7.30;;
22256;SDS011;11297;42.686;23.374;2022-09-03T03:22:47;6.77;;;6.17;;
22256;SDS011;11297;42.686;23.374;2022-09-03T03:25:12;7.87;;;7.07;;
22256;SDS011;11297;42.686;23.374;2022-09-03T03:27:38;8.47;;;7.03;;
22256;SDS011;11297;42.686;23.374;2022-09-03T03:30:06;8.50;;;6.93;;
22256;SDS011;11297;42.686;23.374;2022-09-03T03:32:37;8.60;;;7.30;;
22256;SDS011;11297;42.686;23.374;2022-09-03T03:35:03;7.90;;;6.73;;
22256;SDS011;11297;42.686;23.374;2022-09-03T03:37:30;7.97;;;6.50;;
22256;SDS011;11297;42.686;23.374;2022-09-03T03:39:55;7.87;;;6.13;;
22256;SDS011;11297;42.686;23.374;2022-09-03T03:42:21;7.20;;;6.50;;
22256;SDS011;11297;42.686;23.374;2022-09-03T03:44:46;7.60;;;6.60;;
22256;SDS011;11297;42.686;23.374;2022-09-03T03:47:12;6.17;;;5.57;;
22256;SDS011;11297;42.686;23.374;2022-09-03T03:49:37;8.67;;;6.23;;
22256;SDS011;11297;42.686;23.374;2022-09-03T03:52:03;6.83;;;6.23;;
22256;SDS011;11297;42.686;23.374;2022-09-03T03:54:28;5.83;;;5.30;;
22256;SDS011;11297;42.686;23.374;2022-09-03T03:56:54;6.80;;;6.20;;
22256;SDS011;11297;42.686;23.374;2022-09-03T03:59:20;7.40;;;6.60;;
22256;SDS011;11297;42.686;23.374;2022-09-03T04:01:46;6.70;;;5.47;;
22256;SDS011;11297;42.686;23.374;2022-09-03T04:04:14;7.30;;;6.60;;
22256;SDS011;11297;42.686;23.374;2022-09-03T04:06:39;5.90;;;5.37;;
22256;SDS011;11297;42.686;23.374;2022-09-03T04:09:05;7.47;;;6.37;;
22256;SDS011;11297;42.686;23.374;2022-09-03T04:11:30;7.03;;;5.63;;
22256;SDS011;11297;42.686;23.374;2022-09-03T04:13:56;6.07;;;5.47;;
22256;SDS011;11297;42.686;23.374;2022-09-03T04:16:22;5.83;;;5.33;;
22256;SDS011;11297;42.686;23.374;2022-09-03T04:18:49;6.43;;;5.83;;
22256;SDS011;11297;42.686;23.374;2022-09-03T04:21:17;6.13;;;5.53;;
22256;SDS011;11297;42.686;23.374;2022-09-03T04:23:44;6.20;;;5.60;;
22256;SDS011;11297;42.686;23.374;2022-09-03T04:26:12;7.87;;;7.07;;
22256;SDS011;11297;42.686;23.374;2022-09-03T04:28:41;7.03;;;6.17;;
22256;SDS011;11297;42.686;23.374;2022-09-03T04:31:08;6.53;;;5.93;;
22256;SDS011;11297;42.686;23.374;2022-09-03T04:33:35;7.03;;;5.87;;
22256;SDS011;11297;42.686;23.374;2022-09-03T04:38:29;7.93;;;6.50;;
22256;SDS011;11297;42.686;23.374;2022-09-03T04:40:55;6.33;;;5.73;;
22256;SDS011;11297;42.686;23.374;2022-09-03T04:43:21;7.27;;;6.57;;
22256;SDS011;11297;42.686;23.374;2022-09-03T04:45:46;6.10;;;5.47;;
22256;SDS011;11297;42.686;23.374;2022-09-03T04:48:12;9.10;;;7.03;;
22256;SDS011;11297;42.686;23.374;2022-09-03T04:50:37;5.80;;;5.20;;
22256;SDS011;11297;42.686;23.374;2022-09-03T04:53:03;7.97;;;6.03;;
22256;SDS011;11297;42.686;23.374;2022-09-03T04:55:35;7.00;;;5.97;;
22256;SDS011;11297;42.686;23.374;2022-09-03T04:58:01;9.97;;;6.23;;
22256;SDS011;11297;42.686;23.374;2022-09-03T05:00:28;7.33;;;5.57;;
22256;SDS011;11297;42.686;23.374;2022-09-03T05:02:53;7.57;;;6.73;;
22256;SDS011;11297;42.686;23.374;2022-09-03T05:05:18;6.83;;;5.63;;
22256;SDS011;11297;42.686;23.374;2022-09-03T05:07:44;7.23;;;6.50;;
22256;SDS011;11297;42.686;23.374;2022-09-03T05:10:10;7.47;;;6.53;;
22256;SDS011;11297;42.686;23.374;2022-09-03T05:12:40;7.37;;;6.63;;
22256;SDS011;11297;42.686;23.374;2022-09-03T05:15:05;8.00;;;7.10;;
22256;SDS011;11297;42.686;23.374;2022-09-03T05:17:31;7.27;;;6.53;;
22256;SDS011;11297;42.686;23.374;2022-09-03T05:19:57;8.03;;;7.23;;
22256;SDS011;11297;42.686;23.374;2022-09-03T05:22:22;6.57;;;5.97;;
22256;SDS011;11297;42.686;23.374;2022-09-03T05:24:48;6.93;;;6.17;;
22256;SDS011;11297;42.686;23.374;2022-09-03T05:27:14;7.10;;;6.40;;
22256;SDS011;11297;42.686;23.374;2022-09-03T05:29:44;8.07;;;6.03;;
22256;SDS011;11297;42.686;23.374;2022-09-03T05:32:12;9.33;;;6.57;;
22256;SDS011;11297;42.686;23.374;2022-09-03T05:34:40;8.17;;;6.67;;
22256;SDS011;11297;42.686;23.374;2022-09-03T05:37:05;5.93;;;5.37;;
22256;SDS011;11297;42.686;23.374;2022-09-03T05:39:31;7.47;;;6.23;;
22256;SDS011;11297;42.686;23.374;2022-09-03T05:41:56;7.37;;;6.53;;
22256;SDS011;11297;42.686;23.374;2022-09-03T05:44:22;6.83;;;5.80;;
22256;SDS011;11297;42.686;23.374;2022-09-03T05:46:48;7.03;;;6.37;;
22256;SDS011;11297;42.686;23.374;2022-09-03T05:49:15;7.60;;;6.40;;
22256;SDS011;11297;42.686;23.374;2022-09-03T05:51:41;7.93;;;6.73;;
22256;SDS011;11297;42.686;23.374;2022-09-03T05:54:07;8.07;;;6.30;;
22256;SDS011;11297;42.686;23.374;2022-09-03T05:56:35;6.57;;;5.97;;
22256;SDS011;11297;42.686;23.374;2022-09-03T05:59:04;9.10;;;7.17;;
22256;SDS011;11297;42.686;23.374;2022-09-03T06:01:32;8.17;;;6.20;;
22256;SDS011;11297;42.686;23.374;2022-09-03T06:04:09;7.67;;;6.23;;
22256;SDS011;11297;42.686;23.374;2022-09-03T06:06:37;6.97;;;5.60;;
22256;SDS011;11297;42.686;23.374;2022-09-03T06:09:05;7.20;;;6.50;;
22256;SDS011;11297;42.686;23.374;2022-09-03T06:11:33;6.00;;;5.40;;
22256;SDS011;11297;42.686;23.374;2022-09-03T06:14:00;6.77;;;6.17;;
22256;SDS011;11297;42.686;23.374;2022-09-03T06:16:32;8.37;;;6.50;;
22256;SDS011;11297;42.686;23.374;2022-09-03T06:18:59;7.07;;;6.37;;
22256;SDS011;11297;42.686;23.374;2022-09-03T06:21:25;7.27;;;6.50;;
22256;SDS011;11297;42.686;23.374;2022-09-03T06:23:52;7.90;;;6.73;;
22256;SDS011;11297;42.686;23.374;2022-09-03T06:26:20;8.00;;;7.20;;
22256;SDS011;11297;42.686;23.374;2022-09-03T06:28:47;7.27;;;6.53;;
22256;SDS011;11297;42.686;23.374;2022-09-03T06:31:14;7.57;;;6.77;;
22256;SDS011;11297;42.686;23.374;2022-09-03T06:33:42;7.93;;;6.37;;
22256;SDS011;11297;42.686;23.374;2022-09-03T06:36:09;7.67;;;6.87;;
22256;SDS011;11297;42.686;23.374;2022-09-03T06:38:37;8.37;;;5.80;;
22256;SDS011;11297;42.686;23.374;2022-09-03T06:41:04;6.87;;;6.27;;
22256;SDS011;11297;42.686;23.374;2022-09-03T06:43:38;8.17;;;6.33;;
22256;SDS011;11297;42.686;23.374;2022-09-03T06:46:07;7.03;;;5.70;;
22256;SDS011;11297;42.686;23.374;2022-09-03T06:48:34;6.53;;;5.83;;
22256;SDS011;11297;42.686;23.374;2022-09-03T06:51:42;7.33;;;6.10;;
22256;SDS011;11297;42.686;23.374;2022-09-03T06:53:51;6.40;;;5.40;;
22256;SDS011;11297;42.686;23.374;2022-09-03T06:56:23;8.80;;;6.47;;
22256;SDS011;11297;42.686;23.374;2022-09-03T06:58:54;6.83;;;6.13;;
22256;SDS011;11297;42.686;23.374;2022-09-03T07:01:25;8.43;;;5.30;;
22256;SDS011;11297;42.686;23.374;2022-09-03T07:03:56;7.73;;;6.10;;
22256;SDS011;11297;42.686;23.374;2022-09-03T07:06:28;6.93;;;6.03;;
22256;SDS011;11297;42.686;23.374;2022-09-03T07:09:01;6.10;;;5.50;;
22256;SDS011;11297;42.686;23.374;2022-09-03T07:11:29;5.63;;;4.97;;
22256;SDS011;11297;42.686;23.374;2022-09-03T07:13:57;6.77;;;5.53;;
22256;SDS011;11297;42.686;23.374;2022-09-03T07:16:28;8.07;;;5.80;;
22256;SDS011;11297;42.686;23.374;2022-09-03T07:18:55;6.27;;;5.60;;
22256;SDS011;11297;42.686;23.374;2022-09-03T07:21:22;8.07;;;6.60;;
22256;SDS011;11297;42.686;23.374;2022-09-03T07:23:49;6.43;;;5.83;;
22256;SDS011;11297;42.686;23.374;2022-09-03T07:26:18;6.83;;;6.10;;
22256;SDS011;11297;42.686;23.374;2022-09-03T07:28:46;8.53;;;5.97;;
22256;SDS011;11297;42.686;23.374;2022-09-03T07:34:02;8.17;;;5.40;;
22256;SDS011;11297;42.686;23.374;2022-09-03T07:36:30;7.03;;;6.20;;
22256;SDS011;11297;42.686;23.374;2022-09-03T07:38:59;5.83;;;5.23;;
22256;SDS011;11297;42.686;23.374;2022-09-03T07:41:25;10.10;;;6.83;;
22256;SDS011;11297;42.686;23.374;2022-09-03T07:43:51;11.00;;;9.40;;
22256;SDS011;11297;42.686;23.374;2022-09-03T07:46:18;8.17;;;7.23;;
22256;SDS011;11297;42.686;23.374;2022-09-03T07:48:50;6.83;;;6.17;;
22256;SDS011;11297;42.686;23.374;2022-09-03T07:51:24;6.57;;;5.93;;
22256;SDS011;11297;42.686;23.374;2022-09-03T07:53:55;6.80;;;5.53;;
22256;SDS011;11297;42.686;23.374;2022-09-03T07:56:22;8.00;;;6.30;;
22256;SDS011;11297;42.686;23.374;2022-09-03T07:58:49;7.33;;;5.30;;
22256;SDS011;11297;42.686;23.374;2022-09-03T08:01:15;5.90;;;5.27;;
22256;SDS011;11297;42.686;23.374;2022-09-03T08:03:42;10.77;;;6.07;;
22256;SDS011;11297;42.686;23.374;2022-09-03T08:06:12;8.30;;;6.53;;
22256;SDS011;11297;42.686;23.374;2022-09-03T08:08:39;7.30;;;5.30;;
22256;SDS011;11297;42.686;23.374;2022-09-03T08:11:05;6.77;;;5.80;;
22256;SDS011;11297;42.686;23.374;2022-09-03T08:13:36;8.83;;;5.83;;
22256;SDS011;11297;42.686;23.374;2022-09-03T08:16:07;6.50;;;5.80;;
22256;SDS011;11297;42.686;23.374;2022-09-03T08:18:33;6.37;;;5.07;;
22256;SDS011;11297;42.686;23.374;2022-09-03T08:21:01;6.40;;;5.80;;
22256;SDS011;11297;42.686;23.374;2022-09-03T08:23:29;5.90;;;5.30;;
22256;SDS011;11297;42.686;23.374;2022-09-03T08:25:58;6.27;;;5.67;;
22256;SDS011;11297;42.686;23.374;2022-09-03T08:28:24;6.53;;;5.30;;
22256;SDS011;11297;42.686;23.374;2022-09-03T08:30:50;6.40;;;5.83;;
22256;SDS011;11297;42.686;23.374;2022-09-03T08:33:15;5.73;;;5.10;;
22256;SDS011;11297;42.686;23.374;2022-09-03T08:35:41;6.23;;;5.10;;
22256;SDS011;11297;42.686;23.374;2022-09-03T08:38:06;8.60;;;5.27;;
22256;SDS011;11297;42.686;23.374;2022-09-03T08:40:32;5.43;;;4.93;;
22256;SDS011;11297;42.686;23.374;2022-09-03T08:45:38;6.00;;;5.33;;
22256;SDS011;11297;42.686;23.374;2022-09-03T08:50:34;5.57;;;5.10;;
22256;SDS011;11297;42.686;23.374;2022-09-03T08:55:49;7.37;;;5.10;;
22256;SDS011;11297;42.686;23.374;2022-09-03T08:58:26;6.00;;;5.50;;
22256;SDS011;11297;42.686;23.374;2022-09-03T09:00:58;6.80;;;5.17;;
22256;SDS011;11297;42.686;23.374;2022-09-03T09:03:49;6.90;;;5.07;;
22256;SDS011;11297;42.686;23.374;2022-09-03T09:23:14;5.43;;;4.73;;
22256;SDS011;11297;42.686;23.374;2022-09-03T09:25:49;5.20;;;4.67;;
22256;SDS011;11297;42.686;23.374;2022-09-03T09:28:16;5.03;;;4.53;;
22256;SDS011;11297;42.686;23.374;2022-09-03T09:30:54;7.47;;;4.67;;
22256;SDS011;11297;42.686;23.374;2022-09-03T09:33:21;6.27;;;5.20;;
22256;SDS011;11297;42.686;23.374;2022-09-03T09:35:48;7.13;;;5.23;;
22256;SDS011;11297;42.686;23.374;2022-09-03T09:38:13;6.07;;;4.60;;
22256;SDS011;11297;42.686;23.374;2022-09-03T09:40:42;6.93;;;5.00;;
22256;SDS011;11297;42.686;23.374;2022-09-03T09:45:48;5.87;;;4.80;;
22256;SDS011;11297;42.686;23.374;2022-09-03T09:48:24;5.03;;;4.60;;
22256;SDS011;11297;42.686;23.374;2022-09-03T09:51:05;5.30;;;4.60;;
22256;SDS011;11297;42.686;23.374;2022-09-03T09:53:34;5.50;;;5.00;;
22256;SDS011;11297;42.686;23.374;2022-09-03T09:56:00;5.60;;;5.10;;
22256;SDS011;11297;42.686;23.374;2022-09-03T09:58:29;5.23;;;4.73;;
22256;SDS011;11297;42.686;23.374;2022-09-03T10:01:04;7.60;;;5.07;;
22256;SDS011;11297;42.686;23.374;2022-09-03T10:03:47;5.63;;;5.03;;
22256;SDS011;11297;42.686;23.374;2022-09-03T10:06:15;6.60;;;4.63;;
22256;SDS011;11297;42.686;23.374;2022-09-03T10:11:43;5.20;;;4.53;;
22256;SDS011;11297;42.686;23.374;2022-09-03T10:14:28;6.23;;;5.40;;
22256;SDS011;11297;42.686;23.374;2022-09-03T10:17:10;5.20;;;4.63;;
22256;SDS011;11297;42.686;23.374;2022-09-03T10:20:05;5.20;;;4.70;;
22256;SDS011;11297;42.686;23.374;2022-09-03T10:22:51;7.23;;;5.90;;
22256;SDS011;11297;42.686;23.374;2022-09-03T10:25:19;9.13;;;6.17;;
22256;SDS011;11297;42.686;23.374;2022-09-03T10:27:49;5.40;;;4.90;;
22256;SDS011;11297;42.686;23.374;2022-09-03T10:30:20;7.17;;;6.50;;
22256;SDS011;11297;42.686;23.374;2022-09-03T10:35:50;7.00;;;6.40;;
22256;SDS011;11297;42.686;23.374;2022-09-03T10:41:05;10.60;;;8.93;;
22256;SDS011;11297;42.686;23.374;2022-09-03T10:46:09;5.83;;;5.17;;
22256;SDS011;11297;42.686;23.374;2022-09-03T10:51:24;6.43;;;5.83;;
22256;SDS011;11297;42.686;23.374;2022-09-03T11:07:27;5.53;;;5.03;;
22256;SDS011;11297;42.686;23.374;2022-09-03T11:10:27;5.57;;;5.07;;
22256;SDS011;11297;42.686;23.374;2022-09-03T11:12:59;6.57;;;5.90;;
22256;SDS011;11297;42.686;23.374;2022-09-03T11:20:52;9.00;;;5.90;;
22256;SDS011;11297;42.686;23.374;2022-09-03T11:23:22;5.33;;;4.80;;
22256;SDS011;11297;42.686;23.374;2022-09-03T11:25:53;6.60;;;5.67;;
22256;SDS011;11297;42.686;23.374;2022-09-03T11:34:11;4.53;;;3.97;;
22256;SDS011;11297;42.686;23.374;2022-09-03T11:36:50;5.07;;;4.57;;
22256;SDS011;11297;42.686;23.374;2022-09-03T11:39:19;4.20;;;3.80;;
22256;SDS011;11297;42.686;23.374;2022-09-03T11:41:57;4.37;;;3.97;;
22256;SDS011;11297;42.686;23.374;2022-09-03T11:44:40;4.97;;;4.57;;
22256;SDS011;11297;42.686;23.374;2022-09-03T11:47:15;4.67;;;4.13;;
22256;SDS011;11297;42.686;23.374;2022-09-03T11:49:49;5.50;;;5.00;;
22256;SDS011;11297;42.686;23.374;2022-09-03T11:52:26;4.73;;;4.33;;
22256;SDS011;11297;42.686;23.374;2022-09-03T11:54:56;4.87;;;4.47;;
22256;SDS011;11297;42.686;23.374;2022-09-03T11:57:26;6.53;;;5.93;;
22256;SDS011;11297;42.686;23.374;2022-09-03T11:59:53;5.53;;;4.93;;
22256;SDS011;11297;42.686;23.374;2022-09-03T12:02:31;5.30;;;4.50;;
22256;SDS011;11297;42.686;23.374;2022-09-03T12:16:06;4.53;;;4.13;;
22256;SDS011;11297;42.686;23.374;2022-09-03T12:18:42;4.50;;;4.10;;
22256;SDS011;11297;42.686;23.374;2022-09-03T12:21:09;5.27;;;4.67;;
22256;SDS011;11297;42.686;23.374;2022-09-03T12:23:43;7.90;;;5.03;;
22256;SDS011;11297;42.686;23.374;2022-09-03T12:26:14;4.47;;;4.03;;
22256;SDS011;11297;42.686;23.374;2022-09-03T12:28:44;5.67;;;4.53;;
22256;SDS011;11297;42.686;23.374;2022-09-03T12:33:52;4.83;;;4.37;;
22256;SDS011;11297;42.686;23.374;2022-09-03T12:36:22;4.47;;;4.07;;
22256;SDS011;11297;42.686;23.374;2022-09-03T12:38:48;5.93;;;4.80;;
22256;SDS011;11297;42.686;23.374;2022-09-03T12:41:27;5.80;;;4.70;;
22256;SDS011;11297;42.686;23.374;2022-09-03T12:43:55;5.57;;;4.27;;
22256;SDS011;11297;42.686;23.374;2022-09-03T12:46:26;8.23;;;6.60;;
22256;SDS011;11297;42.686;23.374;2022-09-03T12:48:54;5.30;;;4.67;;
22256;SDS011;11297;42.686;23.374;2022-09-03T12:51:32;4.83;;;4.43;;
22256;SDS011;11297;42.686;23.374;2022-09-03T12:53:58;5.50;;;5.00;;
22256;SDS011;11297;42.686;23.374;2022-09-03T12:56:27;9.00;;;4.93;;
22256;SDS011;11297;42.686;23.374;2022-09-03T12:58:57;5.27;;;4.87;;
22256;SDS011;11297;42.686;23.374;2022-09-03T13:01:31;5.30;;;4.80;;
22256;SDS011;11297;42.686;23.374;2022-09-03T13:09:27;4.73;;;4.33;;
22256;SDS011;11297;42.686;23.374;2022-09-03T13:11:55;5.00;;;4.60;;
22256;SDS011;11297;42.686;23.374;2022-09-03T13:14:23;4.60;;;4.20;;
22256;SDS011;11297;42.686;23.374;2022-09-03T13:16:54;4.50;;;4.20;;
22256;SDS011;11297;42.686;23.374;2022-09-03T13:22:00;3.73;;;3.43;;
22256;SDS011;11297;42.686;23.374;2022-09-03T13:31:02;4.50;;;4.03;;
22256;SDS011;11297;42.686;23.374;2022-09-03T13:33:40;5.47;;;3.93;;
22256;SDS011;11297;42.686;23.374;2022-09-03T13:38:51;3.90;;;3.47;;
22256;SDS011;11297;42.686;23.374;2022-09-03T13:47:01;3.27;;;3.00;;
22256;SDS011;11297;42.686;23.374;2022-09-03T13:52:24;3.90;;;3.13;;
22256;SDS011;11297;42.686;23.374;2022-09-03T13:55:06;3.13;;;2.93;;
22256;SDS011;11297;42.686;23.374;2022-09-03T13:57:56;3.70;;;3.40;;
22256;SDS011;11297;42.686;23.374;2022-09-03T14:00:46;3.90;;;3.07;;
22256;SDS011;11297;42.686;23.374;2022-09-03T14:06:35;2.77;;;2.57;;
22256;SDS011;11297;42.686;23.374;2022-09-03T14:17:09;4.10;;;3.20;;
22256;SDS011;11297;42.686;23.374;2022-09-03T14:20:03;3.83;;;3.00;;
22256;SDS011;11297;42.686;23.374;2022-09-03T14:25:12;3.07;;;2.87;;
22256;SDS011;11297;42.686;23.374;2022-09-03T14:27:40;2.90;;;2.70;;
22256;SDS011;11297;42.686;23.374;2022-09-03T14:30:15;3.30;;;3.10;;
22256;SDS011;11297;42.686;23.374;2022-09-03T14:32:56;3.27;;;3.03;;
22256;SDS011;11297;42.686;23.374;2022-09-03T14:35:35;3.87;;;3.00;;
22256;SDS011;11297;42.686;23.374;2022-09-03T14:52:18;3.50;;;3.30;;
22256;SDS011;11297;42.686;23.374;2022-09-03T15:06:22;3.33;;;3.13;;
22256;SDS011;11297;42.686;23.374;2022-09-03T15:09:02;3.43;;;3.20;;
22256;SDS011;11297;42.686;23.374;2022-09-03T15:11:46;4.30;;;3.90;;
22256;SDS011;11297;42.686;23.374;2022-09-03T15:14:21;3.40;;;3.10;;
22256;SDS011;11297;42.686;23.374;2022-09-03T15:16:59;3.30;;;3.00;;
22256;SDS011;11297;42.686;23.374;2022-09-03T15:22:26;4.50;;;4.00;;
22256;SDS011;11297;42.686;23.374;2022-09-03T15:30:40;4.17;;;3.40;;
22256;SDS011;11297;42.686;23.374;2022-09-03T15:44:13;4.63;;;4.00;;
22256;SDS011;11297;42.686;23.374;2022-09-03T15:58:16;5.00;;;4.60;;
22256;SDS011;11297;42.686;23.374;2022-09-03T16:03:54;6.57;;;5.63;;
22256;SDS011;11297;42.686;23.374;2022-09-03T16:12:26;5.87;;;5.37;;
22256;SDS011;11297;42.686;23.374;2022-09-03T16:15:19;6.13;;;5.50;;
22256;SDS011;11297;42.686;23.374;2022-09-03T16:20:48;6.53;;;5.93;;
22256;SDS011;11297;42.686;23.374;2022-09-03T16:23:26;5.70;;;5.20;;
22256;SDS011;11297;42.686;23.374;2022-09-03T16:47:23;7.03;;;6.40;;
22256;SDS011;11297;42.686;23.374;2022-09-03T16:58:04;7.10;;;6.33;;
22256;SDS011;11297;42.686;23.374;2022-09-03T17:08:53;7.40;;;6.43;;
22256;SDS011;11297;42.686;23.374;2022-09-03T17:22:49;8.47;;;6.80;;
22256;SDS011;11297;42.686;23.374;2022-09-03T17:25:37;7.10;;;6.40;;
22256;SDS011;11297;42.686;23.374;2022-09-03T17:38:50;6.40;;;5.80;;
22256;SDS011;11297;42.686;23.374;2022-09-03T17:41:45;8.07;;;5.60;;
22256;SDS011;11297;42.686;23.374;2022-09-03T17:44:20;6.37;;;5.33;;
22256;SDS011;11297;42.686;23.374;2022-09-03T17:49:48;5.03;;;4.50;;
22256;SDS011;11297;42.686;23.374;2022-09-03T17:58:01;6.00;;;5.50;;
22256;SDS011;11297;42.686;23.374;2022-09-03T18:00:32;5.87;;;5.37;;
22256;SDS011;11297;42.686;23.374;2022-09-03T18:08:02;6.10;;;4.90;;
22256;SDS011;11297;42.686;23.374;2022-09-03T18:10:42;6.17;;;5.53;;
22256;SDS011;11297;42.686;23.374;2022-09-03T18:16:08;5.73;;;5.30;;
22256;SDS011;11297;42.686;23.374;2022-09-03T18:18:46;8.20;;;6.17;;
22256;SDS011;11297;42.686;23.374;2022-09-03T18:21:22;5.67;;;5.17;;
22256;SDS011;11297;42.686;23.374;2022-09-03T18:24:31;6.23;;;5.60;;
22256;SDS011;11297;42.686;23.374;2022-09-03T18:27:24;6.47;;;5.33;;
22256;SDS011;11297;42.686;23.374;2022-09-03T18:30:15;6.00;;;5.50;;
22256;SDS011;11297;42.686;23.374;2022-09-03T18:32:59;7.83;;;7.03;;
22256;SDS011;11297;42.686;23.374;2022-09-03T18:35:43;6.73;;;5.50;;
22256;SDS011;11297;42.686;23.374;2022-09-03T18:38:36;6.07;;;5.47;;
22256;SDS011;11297;42.686;23.374;2022-09-03T18:45:02;6.03;;;4.90;;
22256;SDS011;11297;42.686;23.374;2022-09-03T18:47:54;6.23;;;5.33;;
22256;SDS011;11297;42.686;23.374;2022-09-03T18:56:42;5.87;;;5.37;;
22256;SDS011;11297;42.686;23.374;2022-09-03T18:59:52;7.40;;;5.20;;
22256;SDS011;11297;42.686;23.374;2022-09-03T19:21:35;6.17;;;5.40;;
22256;SDS011;11297;42.686;23.374;2022-09-03T19:23:59;7.07;;;5.87;;
22256;SDS011;11297;42.686;23.374;2022-09-03T19:29:55;6.23;;;5.63;;
22256;SDS011;11297;42.686;23.374;2022-09-03T19:32:57;6.13;;;5.53;;
22256;SDS011;11297;42.686;23.374;2022-09-03T19:35:57;9.10;;;5.17;;
22256;SDS011;11297;42.686;23.374;2022-09-03T19:42:01;6.63;;;5.50;;
22256;SDS011;11297;42.686;23.374;2022-09-03T19:48:17;5.77;;;5.17;;
22256;SDS011;11297;42.686;23.374;2022-09-03T19:54:11;5.67;;;5.17;;
22256;SDS011;11297;42.686;23.374;2022-09-03T19:56:56;7.50;;;5.70;;
22256;SDS011;11297;42.686;23.374;2022-09-03T19:59:40;6.43;;;5.93;;
22256;SDS011;11297;42.686;23.374;2022-09-03T20:02:29;7.13;;;6.40;;
22256;SDS011;11297;42.686;23.374;2022-09-03T20:05:15;6.40;;;5.80;;
22256;SDS011;11297;42.686;23.374;2022-09-03T20:08:02;6.77;;;6.17;;
22256;SDS011;11297;42.686;23.374;2022-09-03T20:10:48;8.77;;;6.37;;
22256;SDS011;11297;42.686;23.374;2022-09-03T20:13:17;6.07;;;5.43;;
22256;SDS011;11297;42.686;23.374;2022-09-03T20:23:46;7.00;;;6.30;;
22256;SDS011;11297;42.686;23.374;2022-09-03T20:29:21;7.03;;;5.93;;
22256;SDS011;11297;42.686;23.374;2022-09-03T20:45:39;6.33;;;5.67;;
22256;SDS011;11297;42.686;23.374;2022-09-03T20:51:02;7.87;;;6.40;;
22256;SDS011;11297;42.686;23.374;2022-09-03T21:02:19;5.90;;;5.40;;
22256;SDS011;11297;42.686;23.374;2022-09-03T21:10:11;5.77;;;5.33;;
22256;SDS011;11297;42.686;23.374;2022-09-03T21:18:12;5.63;;;5.13;;
22256;SDS011;11297;42.686;23.374;2022-09-03T21:20:55;6.40;;;5.80;;
22256;SDS011;11297;42.686;23.374;2022-09-03T21:23:28;7.43;;;6.73;;
22256;SDS011;11297;42.686;23.374;2022-09-03T21:26:14;6.93;;;6.23;;
22256;SDS011;11297;42.686;23.374;2022-09-03T21:28:45;7.70;;;6.20;;
22256;SDS011;11297;42.686;23.374;2022-09-03T21:31:33;9.23;;;7.10;;
22256;SDS011;11297;42.686;23.374;2022-09-03T21:34:13;7.23;;;6.53;;
22256;SDS011;11297;42.686;23.374;2022-09-03T21:36:44;7.73;;;6.93;;
22256;SDS011;11297;42.686;23.374;2022-09-03T21:39:12;7.13;;;6.53;;
22256;SDS011;11297;42.686;23.374;2022-09-03T21:41:46;6.90;;;6.27;;
22256;SDS011;11297;42.686;23.374;2022-09-03T21:44:45;9.70;;;6.90;;
22256;SDS011;11297;42.686;23.374;2022-09-03T21:47:15;7.50;;;6.63;;
22256;SDS011;11297;42.686;23.374;2022-09-03T22:01:02;7.83;;;7.10;;
22256;SDS011;11297;42.686;23.374;2022-09-03T22:03:38;8.77;;;7.30;;
22256;SDS011;11297;42.686;23.374;2022-09-03T22:06:07;6.70;;;6.10;;
22256;SDS011;11297;42.686;23.374;2022-09-03T22:11:21;7.37;;;6.77;;